sensor_id;sensor_type;location;lat;lon;timestamp;pressure;altitude;pressure_sealevel;temperature;humidity
78671;BME280;68277;52.724;6.516;2024-01-16T00:00:14;100678.25;;;-1.20;100.00
78671;BME280;68277;52.724;6.516;2024-01-16T00:02:40;100631.91;;;-1.41;100.00
78671;BME280;68277;52.724;6.516;2024-01-16T00:05:06;100669.78;;;-1.10;100.00
78671;BME280;68277;52.724;6.516;2024-01-16T00:07:32;100656.75;;;-1.13;100.00
78671;BME280;68277;52.724;6.516;2024-01-16T00:10:08;100703.09;;;-0.91;100.00
78671;BME280;68277;52.724;6.516;2024-01-16T00:12:33;100699.63;;;-0.92;100.00
78671;BME280;68277;52.724;6.516;2024-01-16T00:15:02;100674.16;;;-1.08;100.00
78671;BME280;68277;52.724;6.516;2024-01-16T00:17:28;100681.22;;;-1.02;100.00
78671;BME280;68277;52.724;6.516;2024-01-16T00:19:54;100648.75;;;-1.22;100.00
78671;BME280;68277;52.724;6.516;2024-01-16T00:22:19;100637.41;;;-1.27;100.00
78671;BME280;68277;52.724;6.516;2024-01-16T00:24:45;100651.41;;;-1.19;100.00
78671;BME280;68277;52.724;6.516;2024-01-16T00:27:10;100670.66;;;-1.11;100.00
78671;BME280;68277;52.724;6.516;2024-01-16T00:29:37;100634.81;;;-1.27;100.00
78671;BME280;68277;52.724;6.516;2024-01-16T00:32:04;100680.22;;;-1.09;100.00
78671;BME280;68277;52.724;6.516;2024-01-16T00:34:29;100700.31;;;-1.00;100.00
78671;BME280;68277;52.724;6.516;2024-01-16T00:36:55;100675.88;;;-1.08;100.00
78671;BME280;68277;52.724;6.516;2024-01-16T00:39:20;100708.00;;;-1.05;100.00
78671;BME280;68277;52.724;6.516;2024-01-16T00:41:46;100632.88;;;-1.36;100.00
78671;BME280;68277;52.724;6.516;2024-01-16T00:44:11;100692.31;;;-1.09;100.00
78671;BME280;68277;52.724;6.516;2024-01-16T00:46:37;100701.91;;;-1.07;100.00
78671;BME280;68277;52.724;6.516;2024-01-16T00:49:02;100713.19;;;-1.05;100.00
78671;BME280;68277;52.724;6.516;2024-01-16T00:51:28;100733.28;;;-0.96;100.00
78671;BME280;68277;52.724;6.516;2024-01-16T00:53:53;100703.41;;;-1.16;100.00
78671;BME280;68277;52.724;6.516;2024-01-16T00:56:19;100706.81;;;-1.19;100.00
78671;BME280;68277;52.724;6.516;2024-01-16T00:58:44;100702.34;;;-1.24;100.00
78671;BME280;68277;52.724;6.516;2024-01-16T01:01:10;100740.00;;;-1.06;100.00
78671;BME280;68277;52.724;6.516;2024-01-16T01:03:35;100665.53;;;-1.46;100.00
78671;BME280;68277;52.724;6.516;2024-01-16T01:06:01;100735.59;;;-1.08;100.00
78671;BME280;68277;52.724;6.516;2024-01-16T01:08:26;100687.38;;;-1.36;100.00
78671;BME280;68277;52.724;6.516;2024-01-16T01:10:52;100679.41;;;-1.44;100.00
78671;BME280;68277;52.724;6.516;2024-01-16T01:13:18;100695.28;;;-1.31;100.00
78671;BME280;68277;52.724;6.516;2024-01-16T01:15:43;100675.91;;;-1.46;100.00
78671;BME280;68277;52.724;6.516;2024-01-16T01:18:09;100654.94;;;-1.55;100.00
78671;BME280;68277;52.724;6.516;2024-01-16T01:20:34;100706.53;;;-1.31;100.00
78671;BME280;68277;52.724;6.516;2024-01-16T01:23:00;100687.25;;;-1.42;100.00
78671;BME280;68277;52.724;6.516;2024-01-16T01:25:25;100665.38;;;-1.53;100.00
78671;BME280;68277;52.724;6.516;2024-01-16T01:27:52;100686.34;;;-1.44;100.00
78671;BME280;68277;52.724;6.516;2024-01-16T01:30:17;100692.41;;;-1.44;100.00
78671;BME280;68277;52.724;6.516;2024-01-16T01:32:43;100650.25;;;-1.71;100.00
78671;BME280;68277;52.724;6.516;2024-01-16T01:35:09;100701.06;;;-1.43;100.00
78671;BME280;68277;52.724;6.516;2024-01-16T01:37:36;100676.50;;;-1.57;100.00
78671;BME280;68277;52.724;6.516;2024-01-16T01:40:01;100703.75;;;-1.40;100.00
78671;BME280;68277;52.724;6.516;2024-01-16T01:42:27;100694.97;;;-1.45;100.00
78671;BME280;68277;52.724;6.516;2024-01-16T01:44:52;100737.91;;;-1.22;100.00
78671;BME280;68277;52.724;6.516;2024-01-16T01:47:18;100708.81;;;-1.46;100.00
78671;BME280;68277;52.724;6.516;2024-01-16T01:49:43;100714.22;;;-1.35;100.00
78671;BME280;68277;52.724;6.516;2024-01-16T01:52:09;100705.56;;;-1.36;100.00
78671;BME280;68277;52.724;6.516;2024-01-16T01:54:36;100701.91;;;-1.44;100.00
78671;BME280;68277;52.724;6.516;2024-01-16T01:57:03;100693.16;;;-1.49;100.00
78671;BME280;68277;52.724;6.516;2024-01-16T01:59:31;100708.16;;;-1.36;100.00
78671;BME280;68277;52.724;6.516;2024-01-16T02:01:58;100695.00;;;-1.44;100.00
78671;BME280;68277;52.724;6.516;2024-01-16T02:04:25;100745.84;;;-1.16;100.00
78671;BME280;68277;52.724;6.516;2024-01-16T02:06:51;100730.00;;;-1.28;100.00
78671;BME280;68277;52.724;6.516;2024-01-16T02:09:21;100693.94;;;-1.52;100.00
78671;BME280;68277;52.724;6.516;2024-01-16T02:11:46;100690.28;;;-1.60;100.00
78671;BME280;68277;52.724;6.516;2024-01-16T02:14:12;100704.31;;;-1.53;100.00
78671;BME280;68277;52.724;6.516;2024-01-16T02:16:41;100732.25;;;-1.42;100.00
78671;BME280;68277;52.724;6.516;2024-01-16T02:22:04;100734.09;;;-1.38;100.00
78671;BME280;68277;52.724;6.516;2024-01-16T02:24:32;100724.47;;;-1.42;100.00
78671;BME280;68277;52.724;6.516;2024-01-16T02:26:58;100721.81;;;-1.45;100.00
78671;BME280;68277;52.724;6.516;2024-01-16T02:29:24;100742.75;;;-1.37;100.00
78671;BME280;68277;52.724;6.516;2024-01-16T02:31:49;100695.63;;;-1.54;100.00
78671;BME280;68277;52.724;6.516;2024-01-16T02:34:15;100755.16;;;-1.25;100.00
78671;BME280;68277;52.724;6.516;2024-01-16T02:36:40;100712.22;;;-1.47;100.00
78671;BME280;68277;52.724;6.516;2024-01-16T02:39:06;100708.63;;;-1.52;100.00
78671;BME280;68277;52.724;6.516;2024-01-16T02:41:31;100743.84;;;-1.27;100.00
78671;BME280;68277;52.724;6.516;2024-01-16T02:43:57;100707.81;;;-1.51;100.00
78671;BME280;68277;52.724;6.516;2024-01-16T02:46:22;100720.25;;;-1.37;100.00
78671;BME280;68277;52.724;6.516;2024-01-16T02:48:48;100715.72;;;-1.45;100.00
78671;BME280;68277;52.724;6.516;2024-01-16T02:51:14;100713.81;;;-1.54;100.00
78671;BME280;68277;52.724;6.516;2024-01-16T02:53:41;100729.59;;;-1.45;100.00
78671;BME280;68277;52.724;6.516;2024-01-16T02:56:08;100733.91;;;-1.44;100.00
78671;BME280;68277;52.724;6.516;2024-01-16T02:58:33;100732.84;;;-1.53;100.00
78671;BME280;68277;52.724;6.516;2024-01-16T03:00:59;100695.22;;;-1.70;100.00
78671;BME280;68277;52.724;6.516;2024-01-16T03:03:27;100740.69;;;-1.50;100.00
78671;BME280;68277;52.724;6.516;2024-01-16T03:05:52;100768.16;;;-1.24;100.00
78671;BME280;68277;52.724;6.516;2024-01-16T03:08:18;100705.16;;;-1.53;100.00
78671;BME280;68277;52.724;6.516;2024-01-16T03:10:44;100744.53;;;-1.34;100.00
78671;BME280;68277;52.724;6.516;2024-01-16T03:13:10;100748.34;;;-1.20;100.00
78671;BME280;68277;52.724;6.516;2024-01-16T03:15:35;100752.75;;;-1.16;100.00
78671;BME280;68277;52.724;6.516;2024-01-16T03:18:01;100722.84;;;-1.37;100.00
78671;BME280;68277;52.724;6.516;2024-01-16T03:20:27;100741.19;;;-1.30;100.00
78671;BME280;68277;52.724;6.516;2024-01-16T03:22:53;100769.25;;;-1.13;100.00
78671;BME280;68277;52.724;6.516;2024-01-16T03:25:19;100702.56;;;-1.53;100.00
78671;BME280;68277;52.724;6.516;2024-01-16T03:27:45;100735.88;;;-1.35;100.00
78671;BME280;68277;52.724;6.516;2024-01-16T03:30:11;100726.22;;;-1.41;100.00
78671;BME280;68277;52.724;6.516;2024-01-16T03:32:37;100763.97;;;-1.17;100.00
78671;BME280;68277;52.724;6.516;2024-01-16T03:35:03;100701.72;;;-1.53;100.00
78671;BME280;68277;52.724;6.516;2024-01-16T03:37:29;100739.34;;;-1.34;100.00
78671;BME280;68277;52.724;6.516;2024-01-16T03:39:55;100738.56;;;-1.32;100.00
78671;BME280;68277;52.724;6.516;2024-01-16T03:42:21;100732.31;;;-1.39;100.00
78671;BME280;68277;52.724;6.516;2024-01-16T03:44:46;100710.44;;;-1.50;100.00
78671;BME280;68277;52.724;6.516;2024-01-16T03:47:12;100720.84;;;-1.48;100.00
78671;BME280;68277;52.724;6.516;2024-01-16T03:49:38;100734.00;;;-1.41;100.00
78671;BME280;68277;52.724;6.516;2024-01-16T03:52:04;100747.16;;;-1.34;100.00
78671;BME280;68277;52.724;6.516;2024-01-16T03:54:29;100710.25;;;-1.57;100.00
78671;BME280;68277;52.724;6.516;2024-01-16T03:56:55;100737.38;;;-1.45;100.00
78671;BME280;68277;52.724;6.516;2024-01-16T03:59:21;100741.75;;;-1.42;100.00
78671;BME280;68277;52.724;6.516;2024-01-16T04:01:46;100733.75;;;-1.51;100.00
78671;BME280;68277;52.724;6.516;2024-01-16T04:04:13;100705.63;;;-1.69;100.00
78671;BME280;68277;52.724;6.516;2024-01-16T04:06:38;100739.06;;;-1.47;100.00
78671;BME280;68277;52.724;6.516;2024-01-16T04:09:05;100725.91;;;-1.54;100.00
78671;BME280;68277;52.724;6.516;2024-01-16T04:11:30;100727.66;;;-1.53;100.00
78671;BME280;68277;52.724;6.516;2024-01-16T04:13:56;100736.56;;;-1.42;100.00
78671;BME280;68277;52.724;6.516;2024-01-16T04:16:22;100755.06;;;-1.28;100.00
78671;BME280;68277;52.724;6.516;2024-01-16T04:18:47;100727.78;;;-1.47;100.00
78671;BME280;68277;52.724;6.516;2024-01-16T04:21:13;100727.00;;;-1.45;100.00
78671;BME280;68277;52.724;6.516;2024-01-16T04:23:38;100749.88;;;-1.28;100.00
78671;BME280;68277;52.724;6.516;2024-01-16T04:26:04;100719.03;;;-1.51;100.00
78671;BME280;68277;52.724;6.516;2024-01-16T04:28:30;100725.31;;;-1.43;100.00
78671;BME280;68277;52.724;6.516;2024-01-16T04:30:55;100714.72;;;-1.52;100.00
78671;BME280;68277;52.724;6.516;2024-01-16T04:33:21;100724.41;;;-1.45;100.00
78671;BME280;68277;52.724;6.516;2024-01-16T04:35:47;100732.25;;;-1.42;100.00
78671;BME280;68277;52.724;6.516;2024-01-16T04:38:12;100724.41;;;-1.43;100.00
78671;BME280;68277;52.724;6.516;2024-01-16T04:40:41;100734.97;;;-1.37;100.00
78671;BME280;68277;52.724;6.516;2024-01-16T04:43:09;100702.56;;;-1.53;100.00
78671;BME280;68277;52.724;6.516;2024-01-16T04:45:34;100741.94;;;-1.34;100.00
78671;BME280;68277;52.724;6.516;2024-01-16T04:48:00;100754.34;;;-1.21;100.00
78671;BME280;68277;52.724;6.516;2024-01-16T04:50:25;100735.06;;;-1.32;100.00
78671;BME280;68277;52.724;6.516;2024-01-16T04:52:57;100703.63;;;-1.46;100.00
78671;BME280;68277;52.724;6.516;2024-01-16T04:55:26;100706.13;;;-1.49;100.00
78671;BME280;68277;52.724;6.516;2024-01-16T04:57:54;100703.47;;;-1.51;100.00
78671;BME280;68277;52.724;6.516;2024-01-16T05:00:20;100760.47;;;-1.19;100.00
78671;BME280;68277;52.724;6.516;2024-01-16T05:02:45;100713.06;;;-1.48;100.00
78671;BME280;68277;52.724;6.516;2024-01-16T05:05:12;100723.69;;;-1.39;100.00
78671;BME280;68277;52.724;6.516;2024-01-16T05:07:38;100728.88;;;-1.38;100.00
78671;BME280;68277;52.724;6.516;2024-01-16T05:10:04;100690.44;;;-1.54;100.00
78671;BME280;68277;52.724;6.516;2024-01-16T05:12:29;100750.13;;;-1.18;100.00
78671;BME280;68277;52.724;6.516;2024-01-16T05:14:55;100714.25;;;-1.34;100.00
78671;BME280;68277;52.724;6.516;2024-01-16T05:17:20;100721.22;;;-1.33;100.00
78671;BME280;68277;52.724;6.516;2024-01-16T05:19:46;100743.91;;;-1.24;100.00
78671;BME280;68277;52.724;6.516;2024-01-16T05:22:11;100687.91;;;-1.51;100.00
78671;BME280;68277;52.724;6.516;2024-01-16T05:27:50;100694.13;;;-1.44;100.00
78671;BME280;68277;52.724;6.516;2024-01-16T05:30:16;100686.16;;;-1.52;100.00
78671;BME280;68277;52.724;6.516;2024-01-16T05:32:41;100691.47;;;-1.46;100.00
78671;BME280;68277;52.724;6.516;2024-01-16T05:35:07;100729.22;;;-1.22;100.00
78671;BME280;68277;52.724;6.516;2024-01-16T05:37:35;100681.81;;;-1.53;100.00
78671;BME280;68277;52.724;6.516;2024-01-16T05:40:01;100690.69;;;-1.43;100.00
78671;BME280;68277;52.724;6.516;2024-01-16T05:42:29;100727.50;;;-1.22;100.00
78671;BME280;68277;52.724;6.516;2024-01-16T05:44:54;100741.41;;;-1.20;100.00
78671;BME280;68277;52.724;6.516;2024-01-16T05:47:20;100729.19;;;-1.24;100.00
78671;BME280;68277;52.724;6.516;2024-01-16T05:49:46;100716.13;;;-1.27;100.00
78671;BME280;68277;52.724;6.516;2024-01-16T05:52:11;100718.72;;;-1.28;100.00
78671;BME280;68277;52.724;6.516;2024-01-16T05:54:37;100728.41;;;-1.20;100.00
78671;BME280;68277;52.724;6.516;2024-01-16T05:57:03;100696.84;;;-1.40;100.00
78671;BME280;68277;52.724;6.516;2024-01-16T05:59:28;100675.81;;;-1.50;100.00
78671;BME280;68277;52.724;6.516;2024-01-16T06:01:54;100739.78;;;-1.15;100.00
78671;BME280;68277;52.724;6.516;2024-01-16T06:04:20;100661.22;;;-1.45;100.00
78671;BME280;68277;52.724;6.516;2024-01-16T06:06:45;100706.00;;;-1.18;100.00
78671;BME280;68277;52.724;6.516;2024-01-16T06:09:13;100692.06;;;-1.21;100.00
78671;BME280;68277;52.724;6.516;2024-01-16T06:11:40;100725.50;;;-0.96;100.00
78671;BME280;68277;52.724;6.516;2024-01-16T06:14:08;100706.25;;;-1.06;100.00
78671;BME280;68277;52.724;6.516;2024-01-16T06:16:35;100694.84;;;-1.12;100.00
78671;BME280;68277;52.724;6.516;2024-01-16T06:19:01;100699.13;;;-1.14;100.00
78671;BME280;68277;52.724;6.516;2024-01-16T06:21:27;100689.28;;;-1.29;100.00
78671;BME280;68277;52.724;6.516;2024-01-16T06:23:52;100685.75;;;-1.32;100.00
78671;BME280;68277;52.724;6.516;2024-01-16T06:26:18;100728.69;;;-1.08;100.00
78671;BME280;68277;52.724;6.516;2024-01-16T06:28:44;100732.16;;;-1.09;100.00
78671;BME280;68277;52.724;6.516;2024-01-16T06:31:10;100695.34;;;-1.30;100.00
78671;BME280;68277;52.724;6.516;2024-01-16T06:33:37;100690.13;;;-1.30;100.00
78671;BME280;68277;52.724;6.516;2024-01-16T06:36:04;100708.41;;;-1.25;100.00
78671;BME280;68277;52.724;6.516;2024-01-16T06:38:30;100663.69;;;-1.51;100.00
78671;BME280;68277;52.724;6.516;2024-01-16T06:40:57;100684.66;;;-1.42;100.00
78671;BME280;68277;52.724;6.516;2024-01-16T06:43:23;100729.41;;;-1.15;100.00
78671;BME280;68277;52.724;6.516;2024-01-16T06:45:53;100677.69;;;-1.45;100.00
78671;BME280;68277;52.724;6.516;2024-01-16T06:48:19;100627.72;;;-1.72;100.00
78671;BME280;68277;52.724;6.516;2024-01-16T06:50:45;100697.75;;;-1.38;100.00
78671;BME280;68277;52.724;6.516;2024-01-16T06:53:10;100650.50;;;-1.60;100.00
78671;BME280;68277;52.724;6.516;2024-01-16T06:55:36;100710.16;;;-1.24;100.00
78671;BME280;68277;52.724;6.516;2024-01-16T06:58:04;100739.03;;;-1.11;100.00
78671;BME280;68277;52.724;6.516;2024-01-16T07:00:30;100703.03;;;-1.33;100.00
78671;BME280;68277;52.724;6.516;2024-01-16T07:02:57;100710.91;;;-1.30;100.00
78671;BME280;68277;52.724;6.516;2024-01-16T07:05:23;100736.22;;;-1.20;100.00
78671;BME280;68277;52.724;6.516;2024-01-16T07:07:49;100705.66;;;-1.31;100.00
78671;BME280;68277;52.724;6.516;2024-01-16T07:10:15;100739.06;;;-1.09;100.00
78671;BME280;68277;52.724;6.516;2024-01-16T07:12:44;100721.38;;;-1.25;100.00
78671;BME280;68277;52.724;6.516;2024-01-16T07:15:10;100682.09;;;-1.41;100.00
78671;BME280;68277;52.724;6.516;2024-01-16T07:17:36;100682.28;;;-1.33;100.00
78671;BME280;68277;52.724;6.516;2024-01-16T07:20:01;100689.28;;;-1.29;100.00
78671;BME280;68277;52.724;6.516;2024-01-16T07:22:28;100696.25;;;-1.28;100.00
78671;BME280;68277;52.724;6.516;2024-01-16T07:24:53;100716.38;;;-1.18;100.00
78671;BME280;68277;52.724;6.516;2024-01-16T07:27:19;100704.09;;;-1.25;100.00
78671;BME280;68277;52.724;6.516;2024-01-16T07:29:44;100721.72;;;-1.10;100.00
78671;BME280;68277;52.724;6.516;2024-01-16T07:32:10;100721.63;;;-1.15;100.00
78671;BME280;68277;52.724;6.516;2024-01-16T07:34:36;100742.66;;;-1.04;100.00
78671;BME280;68277;52.724;6.516;2024-01-16T07:37:02;100738.38;;;-1.01;100.00
78671;BME280;68277;52.724;6.516;2024-01-16T07:39:27;100683.06;;;-1.35;100.00
78671;BME280;68277;52.724;6.516;2024-01-16T07:41:53;100718.03;;;-1.20;100.00
78671;BME280;68277;52.724;6.516;2024-01-16T07:44:18;100750.50;;;-1.01;100.00
78671;BME280;68277;52.724;6.516;2024-01-16T07:46:44;100739.09;;;-1.08;100.00
78671;BME280;68277;52.724;6.516;2024-01-16T07:49:10;100703.94;;;-1.31;100.00
78671;BME280;68277;52.724;6.516;2024-01-16T07:51:35;100661.81;;;-1.58;100.00
78671;BME280;68277;52.724;6.516;2024-01-16T07:54:06;100758.44;;;-0.95;100.00
78671;BME280;68277;52.724;6.516;2024-01-16T07:56:32;100741.75;;;-1.06;100.00
78671;BME280;68277;52.724;6.516;2024-01-16T07:58:59;100705.91;;;-1.21;100.00
78671;BME280;68277;52.724;6.516;2024-01-16T08:01:25;100695.44;;;-1.25;100.00
78671;BME280;68277;52.724;6.516;2024-01-16T08:03:50;100720.91;;;-1.08;100.00
78671;BME280;68277;52.724;6.516;2024-01-16T08:06:16;100712.38;;;-1.04;100.00
78671;BME280;68277;52.724;6.516;2024-01-16T08:08:42;100716.84;;;-0.97;100.00
78671;BME280;68277;52.724;6.516;2024-01-16T08:11:09;100750.94;;;-0.82;100.00
78671;BME280;68277;52.724;6.516;2024-01-16T08:13:35;100773.91;;;-0.61;100.00
78671;BME280;68277;52.724;6.516;2024-01-16T08:16:00;100691.63;;;-1.02;100.00
78671;BME280;68277;52.724;6.516;2024-01-16T08:18:26;100711.78;;;-0.89;100.00
78671;BME280;68277;52.724;6.516;2024-01-16T08:20:52;100717.16;;;-0.82;100.00
78671;BME280;68277;52.724;6.516;2024-01-16T08:23:17;100694.41;;;-0.93;100.00
78671;BME280;68277;52.724;6.516;2024-01-16T08:25:43;100752.25;;;-0.61;100.00
78671;BME280;68277;52.724;6.516;2024-01-16T08:28:09;100730.34;;;-0.73;100.00
78671;BME280;68277;52.724;6.516;2024-01-16T08:30:35;100717.13;;;-0.83;100.00
78671;BME280;68277;52.724;6.516;2024-01-16T08:33:00;100712.84;;;-0.81;100.00
78671;BME280;68277;52.724;6.516;2024-01-16T08:35:26;100751.31;;;-0.63;100.00
78671;BME280;68277;52.724;6.516;2024-01-16T08:37:51;100744.41;;;-0.63;100.00
78671;BME280;68277;52.724;6.516;2024-01-16T08:40:17;100715.53;;;-0.77;100.00
78671;BME280;68277;52.724;6.516;2024-01-16T08:42:42;100735.84;;;-0.59;100.00
78671;BME280;68277;52.724;6.516;2024-01-16T08:45:08;100747.34;;;-0.48;100.00
78671;BME280;68277;52.724;6.516;2024-01-16T08:47:34;100773.66;;;-0.31;100.00
78671;BME280;68277;52.724;6.516;2024-01-16T08:50:15;100740.41;;;-0.47;100.00
78671;BME280;68277;52.724;6.516;2024-01-16T08:52:41;100776.38;;;-0.27;100.00
78671;BME280;68277;52.724;6.516;2024-01-16T08:55:08;100773.88;;;-0.21;100.00
78671;BME280;68277;52.724;6.516;2024-01-16T08:57:37;100755.47;;;-0.31;100.00
78671;BME280;68277;52.724;6.516;2024-01-16T09:00:06;100730.06;;;-0.44;100.00
78671;BME280;68277;52.724;6.516;2024-01-16T09:02:34;100758.28;;;-0.21;100.00
78671;BME280;68277;52.724;6.516;2024-01-16T09:05:00;100753.03;;;-0.24;100.00
78671;BME280;68277;52.724;6.516;2024-01-16T09:07:26;100768.66;;;-0.22;100.00
78671;BME280;68277;52.724;6.516;2024-01-16T09:09:52;100750.38;;;-0.25;100.00
78671;BME280;68277;52.724;6.516;2024-01-16T09:12:17;100762.56;;;-0.23;100.00
78671;BME280;68277;52.724;6.516;2024-01-16T09:14:43;100761.75;;;-0.19;100.00
78671;BME280;68277;52.724;6.516;2024-01-16T09:17:09;100759.16;;;-0.19;100.00
78671;BME280;68277;52.724;6.516;2024-01-16T09:19:34;100783.69;;;-0.08;100.00
78671;BME280;68277;52.724;6.516;2024-01-16T09:22:00;100735.59;;;-0.28;100.00
78671;BME280;68277;52.724;6.516;2024-01-16T09:24:25;100742.56;;;-0.27;100.00
78671;BME280;68277;52.724;6.516;2024-01-16T09:26:51;100740.97;;;-0.19;100.00
78671;BME280;68277;52.724;6.516;2024-01-16T09:29:16;100708.53;;;-0.37;100.00
78671;BME280;68277;52.724;6.516;2024-01-16T09:31:42;100754.38;;;0.03;100.00
78671;BME280;68277;52.724;6.516;2024-01-16T09:34:11;100715.91;;;-0.15;100.00
78671;BME280;68277;52.724;6.516;2024-01-16T09:36:38;100745.97;;;0.17;100.00
78671;BME280;68277;52.724;6.516;2024-01-16T09:39:07;100774.16;;;0.41;100.00
78671;BME280;68277;52.724;6.516;2024-01-16T09:41:41;100744.41;;;0.25;100.00
78671;BME280;68277;52.724;6.516;2024-01-16T09:44:08;100774.22;;;0.45;100.00
78671;BME280;68277;52.724;6.516;2024-01-16T09:46:37;100753.16;;;0.30;100.00
78671;BME280;68277;52.724;6.516;2024-01-16T09:49:03;100780.25;;;0.41;100.00
78671;BME280;68277;52.724;6.516;2024-01-16T09:51:29;100734.69;;;0.17;100.00
78671;BME280;68277;52.724;6.516;2024-01-16T09:53:54;100749.59;;;0.25;100.00
78671;BME280;68277;52.724;6.516;2024-01-16T09:56:23;100773.25;;;0.39;100.00
78671;BME280;68277;52.724;6.516;2024-01-16T09:59:00;100760.06;;;0.28;100.00
78671;BME280;68277;52.724;6.516;2024-01-16T10:01:30;100775.06;;;0.43;100.00
78671;BME280;68277;52.724;6.516;2024-01-16T10:04:04;100755.84;;;0.36;100.00
78671;BME280;68277;52.724;6.516;2024-01-16T10:06:31;100746.31;;;0.35;100.00
78671;BME280;68277;52.724;6.516;2024-01-16T10:08:59;100722.72;;;0.26;100.00
78671;BME280;68277;52.724;6.516;2024-01-16T10:11:24;100704.38;;;0.19;100.00
78671;BME280;68277;52.724;6.516;2024-01-16T10:13:50;100752.44;;;0.40;100.00
78671;BME280;68277;52.724;6.516;2024-01-16T10:16:15;100727.06;;;0.26;100.00
78671;BME280;68277;52.724;6.516;2024-01-16T10:18:42;100740.25;;;0.36;100.00
78671;BME280;68277;52.724;6.516;2024-01-16T10:21:21;100759.47;;;0.44;100.00
78671;BME280;68277;52.724;6.516;2024-01-16T10:23:48;100780.53;;;0.58;100.00
78671;BME280;68277;52.724;6.516;2024-01-16T10:26:14;100721.78;;;0.23;100.00
78671;BME280;68277;52.724;6.516;2024-01-16T10:28:42;100754.22;;;0.43;100.00
78671;BME280;68277;52.724;6.516;2024-01-16T10:31:10;100761.38;;;0.54;100.00
78671;BME280;68277;52.724;6.516;2024-01-16T10:33:36;100727.22;;;0.35;100.00
78671;BME280;68277;52.724;6.516;2024-01-16T10:38:39;100752.63;;;0.49;100.00
78671;BME280;68277;52.724;6.516;2024-01-16T10:41:16;100752.72;;;0.55;100.00
78671;BME280;68277;52.724;6.516;2024-01-16T10:43:43;100755.47;;;0.66;100.00
78671;BME280;68277;52.724;6.516;2024-01-16T10:46:14;100707.38;;;0.43;100.00
78671;BME280;68277;52.724;6.516;2024-01-16T10:49:00;100700.50;;;0.48;100.00
78671;BME280;68277;52.724;6.516;2024-01-16T10:51:27;100696.25;;;0.53;100.00
78671;BME280;68277;52.724;6.516;2024-01-16T10:54:03;100731.34;;;0.76;100.00
78671;BME280;68277;52.724;6.516;2024-01-16T10:56:34;100728.72;;;0.76;100.00
78671;BME280;68277;52.724;6.516;2024-01-16T10:59:12;100743.47;;;0.74;100.00
78671;BME280;68277;52.724;6.516;2024-01-16T11:01:43;100734.50;;;0.55;100.00
78671;BME280;68277;52.724;6.516;2024-01-16T11:04:12;100724.06;;;0.55;100.00
78671;BME280;68277;52.724;6.516;2024-01-16T11:06:39;100747.66;;;0.64;100.00
78671;BME280;68277;52.724;6.516;2024-01-16T11:09:07;100710.03;;;0.46;100.00
78671;BME280;68277;52.724;6.516;2024-01-16T11:11:34;100730.94;;;0.52;100.00
78671;BME280;68277;52.724;6.516;2024-01-16T11:14:03;100714.34;;;0.44;100.00
78671;BME280;68277;52.724;6.516;2024-01-16T11:16:29;100724.97;;;0.59;100.00
78671;BME280;68277;52.724;6.516;2024-01-16T11:18:57;100735.38;;;0.56;100.00
78671;BME280;68277;52.724;6.516;2024-01-16T11:21:23;100765.88;;;0.63;100.00
78671;BME280;68277;52.724;6.516;2024-01-16T11:23:50;100722.91;;;0.37;100.00
78671;BME280;68277;52.724;6.516;2024-01-16T11:26:24;100750.13;;;0.57;100.00
78671;BME280;68277;52.724;6.516;2024-01-16T11:28:55;100710.63;;;0.30;100.00
78671;BME280;68277;52.724;6.516;2024-01-16T11:31:36;100740.38;;;0.44;100.00
78671;BME280;68277;52.724;6.516;2024-01-16T11:34:02;100750.06;;;0.52;100.00
78671;BME280;68277;52.724;6.516;2024-01-16T11:39:20;100734.47;;;0.54;100.00
78671;BME280;68277;52.724;6.516;2024-01-16T11:44:48;100732.78;;;0.56;100.00
78671;BME280;68277;52.724;6.516;2024-01-16T11:47:22;100716.13;;;0.46;100.00
78671;BME280;68277;52.724;6.516;2024-01-16T11:49:49;100721.41;;;0.52;100.00
78671;BME280;68277;52.724;6.516;2024-01-16T11:52:15;100698.59;;;0.38;100.00
78671;BME280;68277;52.724;6.516;2024-01-16T11:55:00;100701.13;;;0.32;100.00
78671;BME280;68277;52.724;6.516;2024-01-16T11:57:48;100691.59;;;0.32;100.00
78671;BME280;68277;52.724;6.516;2024-01-16T12:00:19;100659.22;;;0.17;100.00
78671;BME280;68277;52.724;6.516;2024-01-16T12:02:56;100699.56;;;0.43;100.00
78671;BME280;68277;52.724;6.516;2024-01-16T12:05:22;100660.16;;;0.20;100.00
78671;BME280;68277;52.724;6.516;2024-01-16T12:07:52;100676.06;;;0.37;100.00
78671;BME280;68277;52.724;6.516;2024-01-16T12:10:23;100677.09;;;0.48;100.00
78671;BME280;68277;52.724;6.516;2024-01-16T12:12:49;100673.59;;;0.46;100.00
78671;BME280;68277;52.724;6.516;2024-01-16T12:15:19;100689.53;;;0.67;100.00
78671;BME280;68277;52.724;6.516;2024-01-16T12:20:20;100655.41;;;0.49;100.00
78671;BME280;68277;52.724;6.516;2024-01-16T12:22:53;100668.69;;;0.65;100.00
78671;BME280;68277;52.724;6.516;2024-01-16T12:25:22;100636.25;;;0.45;100.00
78671;BME280;68277;52.724;6.516;2024-01-16T12:27:58;100649.63;;;0.68;100.00
78671;BME280;68277;52.724;6.516;2024-01-16T12:30:29;100641.84;;;0.71;100.00
78671;BME280;68277;52.724;6.516;2024-01-16T12:33:09;100659.47;;;0.90;100.00
78671;BME280;68277;52.724;6.516;2024-01-16T12:35:38;100600.94;;;0.64;100.00
78671;BME280;68277;52.724;6.516;2024-01-16T12:38:06;100601.06;;;0.72;100.00
78671;BME280;68277;52.724;6.516;2024-01-16T12:40:35;100658.03;;;1.12;100.00
78671;BME280;68277;52.724;6.516;2024-01-16T12:43:02;100652.81;;;1.12;100.00
78671;BME280;68277;52.724;6.516;2024-01-16T12:45:28;100630.97;;;1.02;100.00
78671;BME280;68277;52.724;6.516;2024-01-16T12:47:54;100593.34;;;0.81;100.00
78671;BME280;68277;52.724;6.516;2024-01-16T12:50:25;100646.81;;;1.17;100.00
78671;BME280;68277;52.724;6.516;2024-01-16T12:55:29;100623.97;;;0.98;100.00
78671;BME280;68277;52.724;6.516;2024-01-16T12:58:19;100642.34;;;1.09;100.00
78671;BME280;68277;52.724;6.516;2024-01-16T13:00:49;100634.47;;;1.01;100.00